createdAt,value
2017-10-28T00:00:57.948Z,94804.91
2017-10-28T00:03:25.656Z,94817.66
2017-10-28T00:05:53.368Z,94810.65
2017-10-28T00:08:21.212Z,94801.42
2017-10-28T00:10:49.037Z,94802.65
2017-10-28T00:13:16.750Z,94818.27
2017-10-28T00:15:44.487Z,94821.67
2017-10-28T00:18:12.212Z,94810.50
2017-10-28T00:20:39.911Z,94797.28
2017-10-28T00:23:07.615Z,94790.30
2017-10-28T00:25:35.391Z,94799.38
2017-10-28T00:28:03.124Z,94811.98
2017-10-28T00:30:36.461Z,94803.92
2017-10-28T00:33:09.875Z,94799.79
2017-10-28T00:35:43.317Z,94807.12
2017-10-28T00:38:11.078Z,94825.22
2017-10-28T00:40:38.893Z,94815.30
2017-10-28T00:43:06.578Z,94816.91
2017-10-28T00:45:34.263Z,94817.05
2017-10-28T00:48:02.016Z,94815.45
2017-10-28T00:50:29.752Z,94816.55
2017-10-28T00:52:57.480Z,94814.96
2017-10-28T00:55:25.167Z,94821.52
2017-10-28T00:57:52.851Z,94820.27
2017-10-28T01:00:20.596Z,94812.97
2017-10-28T01:02:48.290Z,94813.45
2017-10-28T01:05:16.039Z,94792.51
2017-10-28T01:07:43.700Z,94811.85
2017-10-28T01:10:11.414Z,94803.22
2017-10-28T01:12:39.168Z,94800.75
2017-10-28T01:15:06.912Z,94793.11
2017-10-28T01:17:34.609Z,94777.61
2017-10-28T01:20:02.375Z,94790.20
2017-10-28T01:22:30.143Z,94784.55
2017-10-28T01:24:58.066Z,94765.42
2017-10-28T01:27:25.800Z,94766.19
2017-10-28T01:29:53.477Z,94763.77
2017-10-28T01:32:21.386Z,94786.92
2017-10-28T01:34:49.101Z,94759.39
2017-10-28T01:37:16.779Z,94746.69
2017-10-28T01:39:44.503Z,94755.81
2017-10-28T01:42:12.313Z,94762.85
2017-10-28T01:44:40.144Z,94774.56
2017-10-28T01:47:07.885Z,94761.20
2017-10-28T01:49:35.626Z,94749.67
2017-10-28T01:52:03.317Z,94768.29
2017-10-28T01:54:31.063Z,94764.19
2017-10-28T01:56:58.736Z,94736.77
2017-10-28T01:59:26.417Z,94739.14
2017-10-28T02:01:54.157Z,94713.25
2017-10-28T02:04:21.878Z,94722.14
2017-10-28T02:06:49.592Z,94727.34
2017-10-28T02:09:17.311Z,94704.07
2017-10-28T02:11:45.059Z,94711.89
2017-10-28T02:14:12.763Z,94707.98
2017-10-28T02:16:40.490Z,94720.31
2017-10-28T02:19:08.179Z,94707.18
2017-10-28T02:21:35.930Z,94690.09
2017-10-28T02:24:03.680Z,94698.19
2017-10-28T02:26:31.408Z,94700.07
2017-10-28T02:28:59.152Z,94698.00
2017-10-28T02:31:26.818Z,94693.02
2017-10-28T02:33:54.617Z,94696.63
2017-10-28T02:36:22.357Z,94696.65
2017-10-28T02:38:50.128Z,94692.16
2017-10-28T02:41:18.470Z,94687.62
2017-10-28T02:43:46.182Z,94689.66
2017-10-28T02:46:13.933Z,94679.66
2017-10-28T02:48:41.586Z,94685.23
2017-10-28T02:51:09.345Z,94684.36
2017-10-28T02:53:37.199Z,94685.13
2017-10-28T02:56:04.886Z,94669.69
2017-10-28T02:58:32.673Z,94651.74
2017-10-28T03:01:00.417Z,94670.33
2017-10-28T03:03:28.167Z,94656.61
2017-10-28T03:05:55.931Z,94654.22
2017-10-28T03:08:23.657Z,94649.97
2017-10-28T03:10:51.385Z,94645.92
2017-10-28T03:13:19.141Z,94648.23
2017-10-28T03:15:46.891Z,94657.87
2017-10-28T03:18:14.612Z,94650.36
2017-10-28T03:20:42.377Z,94657.77
2017-10-28T03:23:10.196Z,94640.08
2017-10-28T03:25:37.911Z,94638.56
2017-10-28T03:28:05.792Z,94627.73
2017-10-28T03:30:33.489Z,94629.67
2017-10-28T03:33:01.294Z,94633.39
2017-10-28T03:35:28.996Z,94645.09
2017-10-28T03:37:56.704Z,94637.86
2017-10-28T03:40:24.527Z,94656.36
2017-10-28T03:42:52.216Z,94662.97
2017-10-28T03:45:19.891Z,94664.16
2017-10-28T03:47:47.629Z,94659.29
2017-10-28T03:50:15.395Z,94648.48
2017-10-28T03:52:43.080Z,94646.25
2017-10-28T03:55:10.848Z,94645.25
2017-10-28T03:57:38.530Z,94644.56
2017-10-28T04:00:06.270Z,94624.02
2017-10-28T04:02:33.947Z,94628.35
2017-10-28T04:05:01.684Z,94610.88
2017-10-28T04:07:29.447Z,94631.09
2017-10-28T04:09:57.206Z,94621.62
2017-10-28T04:12:24.953Z,94619.49
2017-10-28T04:14:52.698Z,94624.59
2017-10-28T04:17:20.417Z,94626.87
2017-10-28T04:19:48.155Z,94621.27
2017-10-28T04:22:15.934Z,94612.91
2017-10-28T04:24:43.653Z,94608.52
2017-10-28T04:27:11.400Z,94602.92
2017-10-28T04:29:39.141Z,94615.42
2017-10-28T04:32:06.891Z,94612.70
2017-10-28T04:34:35.165Z,94622.83
2017-10-28T04:37:02.889Z,94628.06
2017-10-28T04:39:30.684Z,94628.68
2017-10-28T04:41:58.447Z,94614.20
2017-10-28T04:44:26.115Z,94621.56
2017-10-28T04:46:53.862Z,94616.28
2017-10-28T04:49:21.607Z,94622.84
2017-10-28T04:51:49.326Z,94603.27
2017-10-28T04:54:17.103Z,94602.87
2017-10-28T04:56:44.787Z,94593.94
2017-10-28T04:59:12.515Z,94586.52
2017-10-28T05:01:40.261Z,94583.70
2017-10-28T05:04:07.986Z,94584.53
2017-10-28T05:06:35.776Z,94590.63
2017-10-28T05:09:03.546Z,94574.18
2017-10-28T05:11:31.377Z,94581.13
2017-10-28T05:13:59.183Z,94579.41
2017-10-28T05:16:26.902Z,94570.58
2017-10-28T05:18:54.626Z,94578.52
2017-10-28T05:21:22.379Z,94570.52
2017-10-28T05:23:50.124Z,94576.28
2017-10-28T05:26:17.862Z,94571.63
2017-10-28T05:28:45.563Z,94552.06
2017-10-28T05:31:13.346Z,94560.97
2017-10-28T05:33:41.115Z,94550.71
2017-10-28T05:36:08.811Z,94548.38
2017-10-28T05:38:36.567Z,94537.47
2017-10-28T05:41:04.440Z,94542.27
2017-10-28T05:43:32.175Z,94537.42
2017-10-28T05:45:59.977Z,94541.11
2017-10-28T05:48:27.899Z,94547.18
2017-10-28T05:50:55.596Z,94524.11
2017-10-28T05:53:23.356Z,94532.45
2017-10-28T05:55:51.065Z,94520.95
2017-10-28T05:58:18.783Z,94520.06
2017-10-28T06:00:46.581Z,94513.47
2017-10-28T06:03:14.380Z,94519.96
2017-10-28T06:05:42.078Z,94523.11
2017-10-28T06:08:09.845Z,94510.67
2017-10-28T06:10:37.661Z,94514.64
2017-10-28T06:13:05.366Z,94523.81
2017-10-28T06:15:33.066Z,94515.64
2017-10-28T06:18:00.860Z,94521.80
2017-10-28T06:20:28.616Z,94522.64
2017-10-28T06:22:56.389Z,94531.77
2017-10-28T06:25:24.121Z,94538.67
2017-10-28T06:27:51.821Z,94521.58
2017-10-28T06:30:19.591Z,94530.56
2017-10-28T06:32:47.269Z,94531.06
2017-10-28T06:35:14.945Z,94533.08
2017-10-28T06:37:42.705Z,94545.72
2017-10-28T06:40:10.470Z,94542.94
2017-10-28T06:42:38.196Z,94536.92
2017-10-28T06:45:05.922Z,94524.69
2017-10-28T06:47:33.704Z,94532.47
2017-10-28T06:50:01.401Z,94542.53
2017-10-28T06:52:29.120Z,94542.34
2017-10-28T06:54:56.872Z,94541.15
2017-10-28T06:57:24.609Z,94535.39
2017-10-28T06:59:52.295Z,94547.34
2017-10-28T07:02:20.106Z,94543.77
2017-10-28T07:04:47.846Z,94541.85
2017-10-28T07:07:15.574Z,94520.31
2017-10-28T07:09:43.332Z,94535.78
2017-10-28T07:12:11.153Z,94540.56
2017-10-28T07:14:38.926Z,94542.92
2017-10-28T07:17:06.683Z,94547.31
2017-10-28T07:19:34.469Z,94535.54
2017-10-28T07:22:02.268Z,94514.92
2017-10-28T07:24:30.351Z,94523.77
2017-10-28T07:26:58.257Z,94541.22
2017-10-28T07:29:25.954Z,94536.53
2017-10-28T07:31:53.691Z,94538.30
2017-10-28T07:34:21.515Z,94530.64
2017-10-28T07:36:49.254Z,94537.74
2017-10-28T07:39:17.063Z,94533.20
2017-10-28T07:41:44.863Z,94523.69
2017-10-28T07:44:12.641Z,94515.02
2017-10-28T07:46:40.338Z,94508.02
2017-10-28T07:49:08.228Z,94510.02
2017-10-28T07:51:36.347Z,94503.17
2017-10-28T07:54:04.043Z,94510.74
2017-10-28T07:56:31.838Z,94510.67
2017-10-28T07:58:59.604Z,94515.21
2017-10-28T08:01:27.315Z,94505.73
2017-10-28T08:04:00.696Z,94504.08
2017-10-28T08:06:28.430Z,94507.59
2017-10-28T08:08:56.220Z,94498.68
2017-10-28T08:11:24.065Z,94505.09
2017-10-28T08:13:51.888Z,94508.55
2017-10-28T08:16:19.681Z,94492.47
2017-10-28T08:18:47.481Z,94489.45
2017-10-28T08:21:15.220Z,94485.75
2017-10-28T08:23:42.973Z,94494.95
2017-10-28T08:26:10.769Z,94483.28
2017-10-28T08:28:38.481Z,94501.89
2017-10-28T08:31:06.266Z,94493.38
2017-10-28T08:33:34.223Z,94484.80
2017-10-28T08:36:02.001Z,94486.48
2017-10-28T08:38:29.907Z,94495.73
2017-10-28T08:40:57.763Z,94493.82
2017-10-28T08:43:25.495Z,94505.35
2017-10-28T08:45:53.281Z,94510.63
2017-10-28T08:48:21.140Z,94492.72
2017-10-28T08:50:48.923Z,94487.42
2017-10-28T08:53:16.751Z,94495.05
2017-10-28T08:55:45.325Z,94492.93
2017-10-28T08:58:13.110Z,94501.66
2017-10-28T09:00:41.662Z,94497.45
2017-10-28T09:03:09.697Z,94490.87
2017-10-28T09:05:37.431Z,94491.93
2017-10-28T09:08:05.188Z,94471.28
2017-10-28T09:10:32.971Z,94465.48
2017-10-28T09:13:00.724Z,94465.48
2017-10-28T09:15:28.423Z,94467.41
2017-10-28T09:17:57.115Z,94467.38
2017-10-28T09:20:24.921Z,94466.87
2017-10-28T09:22:52.667Z,94489.56
2017-10-28T09:25:20.426Z,94474.34
2017-10-28T09:27:48.247Z,94471.32
2017-10-28T09:30:15.978Z,94483.19
2017-10-28T09:32:43.688Z,94462.72
2017-10-28T09:35:11.464Z,94463.30
2017-10-28T09:37:39.180Z,94471.61
2017-10-28T09:40:06.977Z,94444.01
2017-10-28T09:42:34.768Z,94464.03
2017-10-28T09:45:02.510Z,94455.30
2017-10-28T09:47:30.358Z,94461.41
2017-10-28T09:49:58.226Z,94453.31
2017-10-28T09:52:26.005Z,94460.84
2017-10-28T09:54:53.724Z,94472.93
2017-10-28T09:57:21.610Z,94479.45
2017-10-28T09:59:49.450Z,94455.48
2017-10-28T10:02:17.203Z,94457.09
2017-10-28T10:04:44.977Z,94450.39
2017-10-28T10:07:13.437Z,94463.66
2017-10-28T10:09:41.247Z,94454.42
2017-10-28T10:12:10.143Z,94451.89
2017-10-28T10:14:38.133Z,94443.16
2017-10-28T10:17:05.909Z,94454.27
2017-10-28T10:19:33.700Z,94437.20
2017-10-28T10:22:01.490Z,94443.55
2017-10-28T10:24:29.494Z,94445.78
2017-10-28T10:26:57.686Z,94425.00
2017-10-28T10:29:25.364Z,94416.75
2017-10-28T10:31:53.113Z,94413.77
2017-10-28T10:34:20.835Z,94420.94
2017-10-28T10:36:48.551Z,94400.13
2017-10-28T10:39:16.361Z,94401.94
2017-10-28T10:41:44.202Z,94395.84
2017-10-28T10:44:11.954Z,94376.13
2017-10-28T10:46:39.661Z,94365.33
2017-10-28T10:49:07.444Z,94362.56
2017-10-28T10:51:35.181Z,94369.13
2017-10-28T10:54:02.892Z,94351.84
2017-10-28T10:56:30.687Z,94347.44
2017-10-28T10:58:58.599Z,94343.17
2017-10-28T11:01:26.337Z,94341.73
2017-10-28T11:03:54.134Z,94335.66
2017-10-28T11:06:21.905Z,94337.59
2017-10-28T11:08:49.716Z,94330.02
2017-10-28T11:11:17.418Z,94351.20
2017-10-28T11:13:45.188Z,94332.03
2017-10-28T11:16:12.965Z,94344.73
2017-10-28T11:18:40.727Z,94334.91
2017-10-28T11:21:08.461Z,94320.95
2017-10-28T11:23:36.292Z,94309.48
2017-10-28T11:26:04.078Z,94317.45
2017-10-28T11:28:32.026Z,94304.04
2017-10-28T11:30:59.838Z,94311.73
2017-10-28T11:33:27.664Z,94319.20
2017-10-28T11:35:55.468Z,94302.05
2017-10-28T11:38:23.923Z,94298.98
2017-10-28T11:40:51.864Z,94286.28
2017-10-28T11:43:19.714Z,94292.19
2017-10-28T11:45:47.571Z,94299.13
2017-10-28T11:48:15.462Z,94275.23
2017-10-28T11:50:43.391Z,94270.95
2017-10-28T11:53:12.324Z,94263.02
2017-10-28T11:55:40.203Z,94260.16
2017-10-28T11:58:07.998Z,94266.19
2017-10-28T12:00:35.773Z,94252.42
2017-10-28T12:03:03.750Z,94228.70
2017-10-28T12:05:31.507Z,94226.22
2017-10-28T12:07:59.293Z,94220.16
2017-10-28T12:10:27.149Z,94211.89
2017-10-28T12:12:56.731Z,94210.48
2017-10-28T12:15:24.525Z,94219.88
2017-10-28T12:17:52.410Z,94212.92
2017-10-28T12:20:20.233Z,94204.76
2017-10-28T12:22:47.993Z,94205.11
2017-10-28T12:25:16.058Z,94200.92
2017-10-28T12:27:43.968Z,94192.85
2017-10-28T12:30:12.111Z,94198.77
2017-10-28T12:32:40.251Z,94189.28
2017-10-28T12:35:07.979Z,94187.30
2017-10-28T12:37:36.155Z,94173.82
2017-10-28T12:40:03.915Z,94170.31
2017-10-28T12:42:32.463Z,94163.66
2017-10-28T12:45:00.298Z,94204.45
2017-10-28T12:47:28.004Z,94184.25
2017-10-28T12:49:55.781Z,94179.22
2017-10-28T12:52:23.484Z,94159.83
2017-10-28T12:54:51.815Z,94160.80
2017-10-28T12:57:19.527Z,94160.73
2017-10-28T12:59:47.305Z,94154.32
2017-10-28T13:02:15.106Z,94144.85
2017-10-28T13:04:42.920Z,94147.37
2017-10-28T13:07:10.775Z,94142.52
2017-10-28T13:09:39.451Z,94140.69
2017-10-28T13:12:07.199Z,94147.28
2017-10-28T13:14:35.063Z,94145.03
2017-10-28T13:17:02.793Z,94129.25
2017-10-28T13:19:30.542Z,94141.70
2017-10-28T13:21:58.318Z,94125.48
2017-10-28T13:24:26.084Z,94116.61
2017-10-28T13:26:53.797Z,94133.49
2017-10-28T13:29:21.694Z,94110.77
2017-10-28T13:31:49.379Z,94124.73
2017-10-28T13:34:17.144Z,94124.44
2017-10-28T13:36:44.936Z,94108.70
2017-10-28T13:39:13.207Z,94116.72
2017-10-28T13:41:41.039Z,94114.16
2017-10-28T13:44:09.279Z,94123.08
2017-10-28T13:46:36.977Z,94106.95
2017-10-28T13:49:04.687Z,94105.88
2017-10-28T13:51:32.477Z,94114.73
2017-10-28T13:54:00.193Z,94102.59
2017-10-28T13:56:28.016Z,94104.58
2017-10-28T13:58:55.727Z,94111.72
2017-10-28T14:01:23.524Z,94103.10
2017-10-28T14:03:51.264Z,94107.85
2017-10-28T14:06:18.959Z,94105.88
2017-10-28T14:08:46.692Z,94113.25
2017-10-28T14:11:14.489Z,94102.91
2017-10-28T14:13:42.219Z,94098.45
2017-10-28T14:16:09.968Z,94109.64
2017-10-28T14:18:37.775Z,94091.66
2017-10-28T14:21:05.576Z,94087.24
2017-10-28T14:23:33.278Z,94097.12
2017-10-28T14:26:01.060Z,94118.67
2017-10-28T14:28:28.751Z,94113.73
2017-10-28T14:30:56.514Z,94099.63
2017-10-28T14:33:25.431Z,94113.02
2017-10-28T14:35:53.162Z,94103.01
2017-10-28T14:38:20.880Z,94093.05
2017-10-28T14:40:49.385Z,94101.61
2017-10-28T14:43:17.151Z,94101.61
2017-10-28T14:45:44.925Z,94107.59
2017-10-28T14:48:12.723Z,94102.33
2017-10-28T14:50:40.529Z,94104.84
2017-10-28T14:53:08.277Z,94088.32
2017-10-28T14:55:36.060Z,94109.29
2017-10-28T14:58:03.785Z,94117.23
2017-10-28T15:00:32.145Z,94109.11
2017-10-28T15:03:00.157Z,94112.77
2017-10-28T15:05:27.878Z,94103.03
2017-10-28T15:07:55.671Z,94110.20
2017-10-28T15:10:24.268Z,94111.02
2017-10-28T15:12:52.124Z,94092.38
2017-10-28T15:15:19.837Z,94100.95
2017-10-28T15:17:47.570Z,94106.47
2017-10-28T15:20:15.363Z,94107.27
2017-10-28T15:22:43.151Z,94107.52
2017-10-28T15:25:10.913Z,94131.30
2017-10-28T15:27:38.757Z,94137.95
2017-10-28T15:30:06.568Z,94126.00
2017-10-28T15:32:34.317Z,94121.04
2017-10-28T15:35:02.021Z,94109.42
2017-10-28T15:37:29.775Z,94111.08
2017-10-28T15:39:57.548Z,94106.61
2017-10-28T15:42:25.246Z,94118.33
2017-10-28T15:44:53.071Z,94107.90
2017-10-28T15:47:20.889Z,94109.16
2017-10-28T15:49:48.751Z,94097.73
2017-10-28T15:52:16.486Z,94107.50
2017-10-28T15:54:44.262Z,94104.08
2017-10-28T15:57:12.816Z,94098.62
2017-10-28T15:59:40.632Z,94091.73
2017-10-28T16:02:09.321Z,94102.91
2017-10-28T16:04:37.555Z,94097.97
2017-10-28T16:07:06.609Z,94099.56
2017-10-28T16:09:34.411Z,94118.13
2017-10-28T16:12:02.140Z,94107.09
2017-10-28T16:14:29.899Z,94109.70
2017-10-28T16:16:57.639Z,94107.09
2017-10-28T16:19:26.963Z,94115.90
2017-10-28T16:21:54.760Z,94111.08
2017-10-28T16:24:22.468Z,94114.59
2017-10-28T16:26:50.242Z,94114.84
2017-10-28T16:29:18.924Z,94113.70
2017-10-28T16:31:47.976Z,94120.52
2017-10-28T16:34:18.151Z,94121.56
2017-10-28T16:36:45.939Z,94129.60
2017-10-28T16:39:13.806Z,94122.06
2017-10-28T16:41:41.536Z,94107.64
2017-10-28T16:44:09.257Z,94110.59
2017-10-28T16:46:37.167Z,94113.73
2017-10-28T16:49:05.448Z,94107.18
2017-10-28T16:51:34.004Z,94108.33
2017-10-28T16:54:01.692Z,94098.98
2017-10-28T16:56:29.750Z,94105.27
2017-10-28T16:58:57.532Z,94110.61
2017-10-28T17:01:25.267Z,94108.89
2017-10-28T17:03:53.076Z,94112.19
2017-10-28T17:06:20.869Z,94107.83
2017-10-28T17:08:48.625Z,94114.89
2017-10-28T17:11:16.548Z,94124.38
2017-10-28T17:13:44.501Z,94139.85
2017-10-28T17:16:12.272Z,94132.02
2017-10-28T17:18:39.972Z,94114.39
2017-10-28T17:21:07.769Z,94114.89
2017-10-28T17:23:36.604Z,94108.55
2017-10-28T17:26:04.726Z,94097.69
2017-10-28T17:28:32.510Z,94116.17
2017-10-28T17:31:00.269Z,94120.70
2017-10-28T17:33:28.094Z,94129.37
2017-10-28T17:35:55.806Z,94105.28
2017-10-28T17:38:23.652Z,94093.81
2017-10-28T17:40:51.372Z,94100.86
2017-10-28T17:43:20.099Z,94101.48
2017-10-28T17:45:47.928Z,94102.94
2017-10-28T17:48:15.691Z,94114.90
2017-10-28T17:50:43.441Z,94122.80
2017-10-28T17:53:11.201Z,94120.80
2017-10-28T17:55:39.018Z,94117.04
2017-10-28T17:58:07.507Z,94141.59
2017-10-28T18:00:35.505Z,94115.94
2017-10-28T18:03:03.364Z,94111.28
2017-10-28T18:05:31.174Z,94116.87
2017-10-28T18:08:00.898Z,94117.78
2017-10-28T18:10:28.983Z,94127.19
2017-10-28T18:12:56.833Z,94113.44
2017-10-28T18:15:24.994Z,94110.39
2017-10-28T18:17:52.826Z,94115.66
2017-10-28T18:20:21.160Z,94127.84
2017-10-28T18:22:49.391Z,94114.41
2017-10-28T18:25:17.376Z,94089.67
2017-10-28T18:27:45.187Z,94101.66
2017-10-28T18:30:13.112Z,94102.41
2017-10-28T18:32:40.856Z,94099.89
2017-10-28T18:35:08.947Z,94101.69
2017-10-28T18:37:36.790Z,94094.89
2017-10-28T18:40:04.825Z,94099.89
2017-10-28T18:42:32.705Z,94095.45
2017-10-28T18:45:00.846Z,94111.07
2017-10-28T18:47:28.612Z,94121.41
2017-10-28T18:49:56.560Z,94112.67
2017-10-28T18:52:24.362Z,94134.97
2017-10-28T18:54:52.180Z,94122.80
2017-10-28T18:57:20.003Z,94118.06
2017-10-28T18:59:47.760Z,94115.14
2017-10-28T19:02:15.717Z,94106.70
2017-10-28T19:04:43.779Z,94112.18
2017-10-28T19:07:11.531Z,94119.59
2017-10-28T19:09:39.285Z,94121.61
2017-10-28T19:12:07.074Z,94120.07
2017-10-28T19:14:34.831Z,94107.23
2017-10-28T19:17:02.705Z,94102.20
2017-10-28T19:19:30.431Z,94085.81
2017-10-28T19:21:58.247Z,94093.48
2017-10-28T19:24:25.994Z,94092.69
2017-10-28T19:26:53.808Z,94098.80
2017-10-28T19:29:21.603Z,94078.30
2017-10-28T19:31:49.666Z,94078.11
2017-10-28T19:34:17.505Z,94070.09
2017-10-28T19:36:45.242Z,94069.83
2017-10-28T19:39:13.080Z,94064.08
2017-10-28T19:41:40.958Z,94061.17
2017-10-28T19:44:09.380Z,94069.74
2017-10-28T19:46:37.871Z,94063.70
2017-10-28T19:49:05.730Z,94068.50
2017-10-28T19:51:34.184Z,94061.14
2017-10-28T19:54:02.227Z,94072.23
2017-10-28T19:56:31.131Z,94059.09
2017-10-28T19:59:00.709Z,94048.64
2017-10-28T20:01:28.452Z,94058.26
2017-10-28T20:03:56.428Z,94056.91
2017-10-28T20:06:25.524Z,94049.02
2017-10-28T20:08:53.314Z,94037.58
2017-10-28T20:11:20.989Z,94031.34
2017-10-28T20:13:48.727Z,94048.04
2017-10-28T20:16:16.479Z,94023.53
2017-10-28T20:18:45.074Z,94037.59
2017-10-28T20:21:12.865Z,94033.83
2017-10-28T20:23:40.609Z,94030.95
2017-10-28T20:26:08.381Z,94025.28
2017-10-28T20:28:36.200Z,94014.58
2017-10-28T20:31:03.964Z,94013.66
2017-10-28T20:33:31.820Z,94002.53
2017-10-28T20:35:59.560Z,94011.45
2017-10-28T20:38:27.437Z,94005.49
2017-10-28T20:40:55.308Z,94007.48
2017-10-28T20:43:23.020Z,94015.59
2017-10-28T20:45:50.897Z,93995.11
2017-10-28T20:48:18.640Z,93976.06
2017-10-28T20:50:46.363Z,93991.88
2017-10-28T20:53:14.215Z,93973.09
2017-10-28T20:55:41.981Z,93980.02
2017-10-28T20:58:09.760Z,93980.48
2017-10-28T21:00:38.729Z,93960.09
2017-10-28T21:03:07.970Z,93954.63
2017-10-28T21:05:35.760Z,93949.27
2017-10-28T21:08:03.522Z,93950.08
2017-10-28T21:10:31.241Z,93964.04
2017-10-28T21:12:59.301Z,93950.19
2017-10-28T21:15:27.009Z,93944.68
2017-10-28T21:17:54.923Z,93952.23
2017-10-28T21:20:22.710Z,93949.20
2017-10-28T21:22:50.474Z,93943.55
2017-10-28T21:25:18.245Z,93949.75
2017-10-28T21:27:45.940Z,93943.83
2017-10-28T21:30:13.744Z,93913.17
2017-10-28T21:32:41.532Z,93915.34
2017-10-28T21:35:09.299Z,93902.91
2017-10-28T21:37:36.989Z,93904.08
2017-10-28T21:40:04.788Z,93892.83
2017-10-28T21:42:32.520Z,93892.84
2017-10-28T21:45:00.249Z,93875.92
2017-10-28T21:47:27.960Z,93884.44
2017-10-28T21:49:55.781Z,93875.34
2017-10-28T21:52:23.627Z,93859.66
2017-10-28T21:54:51.372Z,93857.60
2017-10-28T21:57:19.225Z,93841.83
2017-10-28T21:59:47.032Z,93840.95
2017-10-28T22:02:14.750Z,93828.22
2017-10-28T22:04:42.497Z,93815.66
2017-10-28T22:07:10.273Z,93825.83
2017-10-28T22:09:38.004Z,93825.94
2017-10-28T22:12:06.030Z,93825.61
2017-10-28T22:14:33.773Z,93831.03
2017-10-28T22:17:01.504Z,93821.59
2017-10-28T22:19:29.293Z,93811.73
2017-10-28T22:21:56.990Z,93817.36
2017-10-28T22:24:24.763Z,93816.74
2017-10-28T22:26:52.514Z,93810.98
2017-10-28T22:29:20.299Z,93804.28
2017-10-28T22:31:48.081Z,93795.39
2017-10-28T22:34:15.851Z,93784.38
2017-10-28T22:36:43.571Z,93767.31
2017-10-28T22:39:11.357Z,93767.96
2017-10-28T22:41:39.153Z,93766.41
2017-10-28T22:44:06.978Z,93786.14
2017-10-28T22:46:34.678Z,93775.55
2017-10-28T22:49:02.472Z,93803.20
2017-10-28T22:51:30.234Z,93783.39
2017-10-28T22:53:58.004Z,93776.11
2017-10-28T22:56:25.789Z,93769.44
2017-10-28T22:58:53.469Z,93764.86
2017-10-28T23:01:21.248Z,93764.28
2017-10-28T23:03:49.116Z,93769.42
2017-10-28T23:06:16.930Z,93762.35
2017-10-28T23:08:45.602Z,93750.62
2017-10-28T23:11:13.309Z,93753.10
2017-10-28T23:13:41.081Z,93748.70
2017-10-28T23:16:08.795Z,93732.11
2017-10-28T23:18:36.493Z,93740.52
2017-10-28T23:21:04.845Z,93731.54
2017-10-28T23:23:32.622Z,93732.86
2017-10-28T23:26:00.310Z,93731.62
2017-10-28T23:28:28.581Z,93733.69
2017-10-28T23:30:57.395Z,93719.36
2017-10-28T23:33:25.815Z,93699.23
2017-10-28T23:35:53.570Z,93699.96
2017-10-28T23:38:21.327Z,93696.76
2017-10-28T23:40:49.152Z,93691.33
2017-10-28T23:43:16.839Z,93693.48
2017-10-28T23:45:44.829Z,93690.14
2017-10-28T23:48:12.591Z,93680.60
2017-10-28T23:50:40.720Z,93675.85
2017-10-28T23:53:09.162Z,93677.15
2017-10-28T23:55:37.000Z,93671.52
2017-10-28T23:58:04.705Z,93678.09
